Time;durP1;ratioP1;P1;durP2;ratioP2;P2;SDS_P1;SDS_P2;PMS_P1;PMS_P2;Temp;Humidity;BMP_temperature;BMP_pressure;BME280_temperature;BME280_humidity;BME280_pressure;Samples;Min_cycle;Max_cycle;Signal;HPM_P1;HPM_P2
2022/11/14 00:01:48;;;;;;;38.30;17.37;;;;;;;7.89;100.00;101860.50;5054403;28;21012;-68
2022/11/14 00:04:15;;;;;;;47.17;17.33;;;;;;;7.91;100.00;101853.75;5053194;28;20464;-68
2022/11/14 00:06:41;;;;;;;34.20;15.50;;;;;;;7.84;100.00;101851.25;5054235;28;20549;-68
2022/11/14 00:09:09;;;;;;;35.20;15.17;;;;;;;7.78;100.00;101841.47;5053108;28;20577;-69
2022/11/14 00:11:36;;;;;;;41.97;17.23;;;;;;;7.75;100.00;101846.56;5054106;28;20481;-69
2022/11/14 00:14:02;;;;;;;48.30;16.73;;;;;;;7.75;99.94;101847.38;5052141;28;20545;-68
2022/11/14 00:16:29;;;;;;;37.43;16.17;;;;;;;7.66;100.00;101848.88;5053689;28;20510;-69
2022/11/14 00:18:55;;;;;;;45.97;16.87;;;;;;;7.64;100.00;101842.91;5052745;28;21001;-69
2022/11/14 00:21:22;;;;;;;40.67;17.70;;;;;;;7.62;100.00;101841.53;5053979;28;20466;-69
2022/11/14 00:23:49;;;;;;;37.73;15.47;;;;;;;7.61;100.00;101846.09;5052960;28;20548;-69
2022/11/14 00:26:16;;;;;;;36.90;18.20;;;;;;;7.64;100.00;101842.09;5051875;28;20545;-69
2022/11/14 00:28:44;;;;;;;39.77;16.10;;;;;;;7.60;100.00;101836.38;5053747;28;20999;-69
2022/11/14 00:31:11;;;;;;;37.97;16.77;;;;;;;7.59;100.00;101838.28;5054010;28;20523;-69
2022/11/14 00:33:38;;;;;;;41.60;15.73;;;;;;;7.61;100.00;101827.22;5053504;28;20902;-69
2022/11/14 00:36:05;;;;;;;44.47;16.20;;;;;;;7.67;100.00;101828.94;5053689;28;20536;-69
2022/11/14 00:38:31;;;;;;;52.90;20.07;;;;;;;7.69;100.00;101817.88;5053596;28;20458;-69
2022/11/14 00:40:58;;;;;;;38.33;16.93;;;;;;;7.66;100.00;101823.78;5051856;28;20462;-69
2022/11/14 00:43:26;;;;;;;40.07;16.50;;;;;;;7.63;100.00;101824.28;5053533;28;20442;-69
2022/11/14 00:45:52;;;;;;;39.67;16.70;;;;;;;7.61;100.00;101823.72;5052150;28;20458;-69
2022/11/14 00:48:19;;;;;;;45.07;17.43;;;;;;;7.58;100.00;101814.25;5052142;28;20482;-69
2022/11/14 00:50:45;;;;;;;41.23;17.00;;;;;;;7.61;100.00;101823.72;5052476;28;20486;-69
2022/11/14 00:53:12;;;;;;;41.27;16.10;;;;;;;7.58;100.00;101817.78;5052401;28;20488;-69
2022/11/14 00:55:39;;;;;;;54.63;17.00;;;;;;;7.55;100.00;101812.88;5052385;28;20534;-69
2022/11/14 00:58:06;;;;;;;36.87;15.37;;;;;;;7.54;100.00;101810.44;5052142;28;20478;-69
2022/11/14 01:00:34;;;;;;;39.97;15.70;;;;;;;7.54;100.00;101811.25;5053546;28;20533;-69
2022/11/14 01:03:00;;;;;;;40.23;16.67;;;;;;;7.49;100.00;101799.59;5051319;28;21031;-69
2022/11/14 01:05:27;;;;;;;45.43;18.30;;;;;;;7.45;100.00;101798.47;5053244;28;20522;-69
2022/11/14 01:07:54;;;;;;;40.27;17.47;;;;;;;7.45;100.00;101798.47;5052060;28;20474;-69
2022/11/14 01:10:21;;;;;;;49.40;18.40;;;;;;;7.41;100.00;101802.72;5052745;28;20488;-69
2022/11/14 01:12:47;;;;;;;36.23;16.00;;;;;;;7.44;100.00;101797.66;5051944;28;20985;-69
2022/11/14 01:15:14;;;;;;;45.20;17.23;;;;;;;7.49;100.00;101795.00;5053140;28;20871;-69
2022/11/14 01:17:42;;;;;;;57.63;18.63;;;;;;;7.44;100.00;101796.84;5051480;28;20495;-69
2022/11/14 01:20:09;;;;;;;44.97;17.97;;;;;;;7.44;100.00;101791.44;5052803;28;21000;-69
2022/11/14 01:22:35;;;;;;;49.80;18.60;;;;;;;7.38;100.00;101787.03;5052103;28;20468;-69
2022/11/14 01:25:02;;;;;;;43.03;18.30;;;;;;;7.42;100.00;101774.69;5053034;28;20442;-69
2022/11/14 01:27:31;;;;;;;39.30;16.63;;;;;;;7.47;100.00;101780.94;5048585;28;20485;-69
2022/11/14 01:29:57;;;;;;;39.73;16.40;;;;;;;7.48;100.00;101773.66;5051599;28;21065;-69
2022/11/14 01:32:25;;;;;;;38.93;17.33;;;;;;;7.46;100.00;101763.16;5052672;28;20442;-68
2022/11/14 01:34:53;;;;;;;51.23;17.80;;;;;;;7.43;100.00;101766.34;5052080;28;20473;-69
2022/11/14 01:37:20;;;;;;;43.97;17.23;;;;;;;7.42;100.00;101764.72;5040635;28;20484;-69
2022/11/14 01:39:46;;;;;;;51.07;17.50;;;;;;;7.38;100.00;101768.97;5052579;28;20477;-69
2022/11/14 01:42:13;;;;;;;42.57;18.37;;;;;;;7.34;100.00;101760.56;5051160;28;20472;-69
2022/11/14 01:44:47;;;;;;;54.73;19.20;;;;;;;7.35;100.00;101756.03;5052521;28;20476;-69
2022/11/14 01:47:18;;;;;;;43.83;17.17;;;;;;;7.31;100.00;101755.69;5050468;28;21058;-69
2022/11/14 01:49:48;;;;;;;50.50;18.00;;;;;;;7.24;100.00;101749.66;5052662;28;20485;-69
2022/11/14 01:52:19;;;;;;;44.70;16.43;;;;;;;7.23;100.00;101747.22;5054594;28;20427;-69
2022/11/14 01:54:48;;;;;;;58.13;17.57;;;;;;;7.24;100.00;101744.28;5056008;28;20488;-69
2022/11/14 01:57:20;;;;;;;58.77;20.83;;;;;;;7.23;100.00;101731.88;5056372;28;20552;-69
2022/11/14 01:59:50;;;;;;;49.50;16.77;;;;;;;7.23;100.00;101731.88;5055654;28;20460;-69
2022/11/14 02:02:20;;;;;;;45.00;19.20;;;;;;;7.27;100.00;101727.63;5056639;28;20458;-69
2022/11/14 02:04:51;;;;;;;40.77;17.77;;;;;;;7.29;100.00;101730.88;5055267;28;20458;-69
2022/11/14 02:07:19;;;;;;;48.60;18.67;;;;;;;7.30;100.00;101723.59;5056120;28;20549;-69
2022/11/14 02:09:48;;;;;;;50.80;19.97;;;;;;;7.37;100.00;101726.13;5054384;28;20508;-69
2022/11/14 02:12:17;;;;;;;49.97;20.23;;;;;;;7.34;100.00;101717.44;5056445;28;20813;-69
2022/11/14 02:14:46;;;;;;;44.93;18.00;;;;;;;7.34;100.00;101712.06;5054384;28;20464;-69
2022/11/14 02:17:14;;;;;;;50.37;20.17;;;;;;;7.35;100.00;101704.81;5056005;28;20482;-69
2022/11/14 02:19:43;;;;;;;48.60;17.07;;;;;;;7.35;100.00;101704.81;5055310;28;20938;-69
2022/11/14 02:22:11;;;;;;;47.07;18.47;;;;;;;7.29;100.00;101701.22;5056206;28;20446;-69
2022/11/14 02:24:37;;;;;;;50.90;18.87;;;;;;;7.23;100.00;101696.84;5055168;28;20531;-69
2022/11/14 02:27:05;;;;;;;49.03;19.23;;;;;;;7.14;100.00;101702.94;5056037;28;20488;-69
2022/11/14 02:29:33;;;;;;;57.67;20.80;;;;;;;7.12;100.00;101703.16;5054675;28;21070;-69
2022/11/14 02:32:00;;;;;;;48.17;18.93;;;;;;;7.07;100.00;101703.91;5056281;28;20476;-69
2022/11/14 02:34:26;;;;;;;42.43;17.67;;;;;;;7.06;100.00;101699.59;5053880;28;20533;-69
2022/11/14 02:36:53;;;;;;;53.47;18.80;;;;;;;7.10;100.00;101694.53;5055966;28;20505;-69
2022/11/14 02:39:22;;;;;;;52.50;22.13;;;;;;;7.11;100.00;101696.16;5055253;28;20480;-70
2022/11/14 02:41:49;;;;;;;50.17;19.07;;;;;;;7.13;100.00;101688.66;5055924;28;20529;-70
2022/11/14 02:44:17;;;;;;;43.57;18.10;;;;;;;7.15;100.00;101691.91;5054887;28;20501;-67
2022/11/14 02:46:43;;;;;;;45.17;19.40;;;;;;;7.16;100.00;101688.13;5054836;28;20470;-67
2022/11/14 02:49:10;;;;;;;46.87;18.23;;;;;;;7.23;100.00;101679.88;5054415;28;20486;-67
2022/11/14 02:51:37;;;;;;;50.13;18.33;;;;;;;7.19;100.00;101676.84;5054092;28;20464;-67
2022/11/14 02:54:03;;;;;;;44.40;18.93;;;;;;;7.20;100.00;101675.78;5054655;28;20519;-67
2022/11/14 02:56:31;;;;;;;44.90;18.20;;;;;;;7.30;100.00;101677.78;5055313;28;20549;-67
2022/11/14 02:58:58;;;;;;;54.63;18.47;;;;;;;7.29;100.00;101679.66;5054325;28;20982;-67
2022/11/14 03:01:25;;;;;;;48.23;19.20;;;;;;;7.37;100.00;101683.00;5055375;28;20992;-67
2022/11/14 03:03:51;;;;;;;58.43;19.27;;;;;;;7.40;100.00;101671.72;5053720;28;20452;-67
2022/11/14 03:06:18;;;;;;;50.73;19.80;;;;;;;7.46;100.00;101665.28;5054549;28;20454;-68
2022/11/14 03:08:44;;;;;;;60.87;19.80;;;;;;;7.51;100.00;101668.03;5054548;28;20477;-68
2022/11/14 03:11:11;;;;;;;39.67;17.70;;;;;;;7.47;100.00;101664.22;5055341;28;21027;-67
2022/11/14 03:13:39;;;;;;;47.03;18.17;;;;;;;7.53;100.00;101655.16;5054660;28;20441;-68
2022/11/14 03:16:07;;;;;;;48.33;17.77;;;;;;;7.54;100.00;101656.75;5054554;28;20458;-67
2022/11/14 03:18:33;;;;;;;53.83;17.50;;;;;;;7.52;100.00;101650.78;5054875;28;20846;-68
2022/11/14 03:21:05;;;;;;;49.63;17.00;;;;;;;7.41;100.00;101647.19;5054261;28;20468;-68
2022/11/14 03:23:32;;;;;;;51.30;19.20;;;;;;;7.43;100.00;101649.63;5054257;28;20473;-68
2022/11/14 03:26:00;;;;;;;42.30;17.60;;;;;;;7.37;100.00;101646.06;5055049;28;20871;-68
2022/11/14 03:28:27;;;;;;;44.97;19.37;;;;;;;7.41;100.00;101647.19;5053872;28;20482;-67
2022/11/14 03:30:55;;;;;;;51.43;17.63;;;;;;;7.32;100.00;101654.09;5054962;28;20593;-70
2022/11/14 03:33:21;;;;;;;47.40;18.87;;;;;;;7.24;100.00;101647.28;5053952;28;20486;-70
2022/11/14 03:35:49;;;;;;;55.50;17.70;;;;;;;7.25;100.00;101643.50;5054555;28;20541;-69
2022/11/14 03:38:15;;;;;;;57.30;19.07;;;;;;;7.29;100.00;101644.63;5053627;28;20478;-70
2022/11/14 03:40:43;;;;;;;53.93;19.60;;;;;;;7.26;100.00;101639.75;5054758;28;20525;-70
2022/11/14 03:43:09;;;;;;;51.30;18.70;;;;;;;7.31;100.00;101634.44;5053725;28;20466;-70
2022/11/14 03:45:37;;;;;;;51.57;16.80;;;;;;;7.30;100.00;101630.09;5054700;28;20440;-70
2022/11/14 03:48:06;;;;;;;42.50;16.83;;;;;;;7.38;100.00;101623.44;5053539;28;20513;-69
2022/11/14 03:50:33;;;;;;;36.97;17.47;;;;;;;7.37;100.00;101618.31;5054533;28;20569;-69
2022/11/14 03:52:59;;;;;;;44.83;18.03;;;;;;;7.37;100.00;101627.19;5052047;28;20462;-70
2022/11/14 03:55:26;;;;;;;50.73;17.83;;;;;;;7.37;100.00;101624.50;5053284;28;20474;-69
2022/11/14 03:57:53;;;;;;;48.13;17.43;;;;;;;7.32;100.00;101627.16;5053022;28;20561;-69
2022/11/14 04:00:20;;;;;;;50.63;18.03;;;;;;;7.33;100.00;101624.19;5053000;28;20928;-69
2022/11/14 04:02:47;;;;;;;54.73;19.13;;;;;;;7.36;100.00;101622.88;5053890;28;20446;-69
2022/11/14 04:05:15;;;;;;;44.67;16.23;;;;;;;7.48;100.00;101623.56;5053302;28;20449;-69
2022/11/14 04:07:42;;;;;;;50.63;17.80;;;;;;;7.51;100.00;101624.91;5034140;28;20459;-69
2022/11/14 04:10:09;;;;;;;49.67;20.17;;;;;;;7.51;100.00;101619.53;5052614;28;20572;-69
2022/11/14 04:12:35;;;;;;;63.03;18.67;;;;;;;7.49;100.00;101624.38;5054085;28;20872;-70
2022/11/14 04:15:02;;;;;;;47.40;19.60;;;;;;;7.43;100.00;101617.28;5052183;28;20458;-69
2022/11/14 04:17:28;;;;;;;41.67;18.67;;;;;;;7.45;100.00;101607.88;5053465;28;20847;-70
2022/11/14 04:19:55;;;;;;;46.70;18.00;;;;;;;7.37;100.00;101604.81;5052738;28;20484;-69
2022/11/14 04:22:23;;;;;;;42.33;15.90;;;;;;;7.31;100.00;101602.09;5053856;28;20474;-70
2022/11/14 04:24:49;;;;;;;55.43;18.30;;;;;;;7.20;100.00;101603.03;5052889;28;20494;-70
2022/11/14 04:27:16;;;;;;;45.93;17.87;;;;;;;7.19;100.00;101604.09;5053693;28;20541;-70
2022/11/14 04:29:43;;;;;;;49.23;17.53;;;;;;;7.20;100.00;101594.94;5052526;28;20486;-69
2022/11/14 04:32:09;;;;;;;37.63;17.23;;;;;;;7.20;100.00;101599.53;5053746;28;20550;-70
2022/11/14 04:34:36;;;;;;;44.17;17.30;;;;;;;7.17;100.00;101591.94;5052713;28;20497;-70
2022/11/14 04:37:02;;;;;;;49.07;19.00;;;;;;;7.16;100.00;101596.53;5053574;28;20462;-70
2022/11/14 04:39:30;;;;;;;54.10;20.07;;;;;;;7.10;100.00;101589.47;5052139;28;20546;-70
2022/11/14 04:41:57;;;;;;;48.60;18.23;;;;;;;7.14;100.00;101593.28;5053533;28;20806;-70
2022/11/14 04:44:23;;;;;;;45.60;17.83;;;;;;;7.12;100.00;101595.41;5051554;28;20537;-70
2022/11/14 04:46:50;;;;;;;55.73;18.23;;;;;;;7.10;100.00;101585.97;5051373;28;20557;-70
2022/11/14 04:49:16;;;;;;;49.47;18.20;;;;;;;7.08;100.00;101580.81;5052382;28;20468;-69
2022/11/14 04:51:43;;;;;;;58.40;19.17;;;;;;;7.05;100.00;101578.63;5053325;28;20442;-68
2022/11/14 04:54:10;;;;;;;36.13;16.70;;;;;;;7.02;100.00;101585.31;5052128;28;20450;-69
2022/11/14 04:56:38;;;;;;;60.70;19.17;;;;;;;7.03;100.00;101578.06;5053043;28;20466;-69
2022/11/14 04:59:04;;;;;;;53.13;19.70;;;;;;;6.94;100.00;101577.69;5051749;28;20469;-69
2022/11/14 05:01:31;;;;;;;65.30;20.83;;;;;;;6.95;100.00;101575.81;5052891;28;20951;-69
2022/11/14 05:03:57;;;;;;;45.70;19.43;;;;;;;6.81;100.00;101578.88;5052206;28;20497;-69
2022/11/14 05:06:24;;;;;;;58.77;18.13;;;;;;;6.78;100.00;101576.72;5053084;28;20442;-69
2022/11/14 05:08:50;;;;;;;47.40;18.60;;;;;;;6.83;100.00;101579.47;5052175;28;20565;-69
2022/11/14 05:11:19;;;;;;;53.27;17.03;;;;;;;6.80;100.00;101579.97;5052075;28;20496;-69
2022/11/14 05:13:47;;;;;;;52.30;18.70;;;;;;;6.76;100.00;101586.09;5052165;28;20444;-69
2022/11/14 05:16:14;;;;;;;41.87;18.23;;;;;;;6.75;100.00;101576.41;5052680;28;20469;-69
2022/11/14 05:18:40;;;;;;;65.87;18.43;;;;;;;6.79;100.00;101570.25;5051608;28;20475;-69
2022/11/14 05:21:07;;;;;;;46.53;17.20;;;;;;;6.85;100.00;101567.63;5052959;28;20450;-69
2022/11/14 05:23:33;;;;;;;51.30;15.60;;;;;;;6.86;100.00;101564.66;5052364;28;20442;-69
2022/11/14 05:26:01;;;;;;;49.57;17.03;;;;;;;6.89;100.00;101556.09;5055059;28;20473;-69
2022/11/14 05:28:28;;;;;;;48.13;16.50;;;;;;;6.80;100.00;101554.91;5059603;28;20922;-69
2022/11/14 05:31:02;;;;;;;44.43;20.17;;;;;;;6.73;100.00;101549.72;5058309;28;20852;-69
2022/11/14 05:33:29;;;;;;;43.93;18.40;;;;;;;6.75;100.00;101547.59;5059602;28;20422;-70
2022/11/14 05:35:55;;;;;;;62.13;19.67;;;;;;;6.75;100.00;101550.28;5059562;28;20533;-70
2022/11/14 05:38:22;;;;;;;44.57;17.50;;;;;;;6.81;100.00;101545.75;5058252;28;20933;-69
2022/11/14 05:40:48;;;;;;;48.80;18.20;;;;;;;6.80;100.00;101555.72;5059292;28;20503;-70
2022/11/14 05:43:15;;;;;;;58.87;17.97;;;;;;;6.78;100.00;101541.72;5058594;28;20535;-70
2022/11/14 05:45:41;;;;;;;46.57;18.17;;;;;;;6.85;100.00;101562.22;5058562;28;20544;-69
2022/11/14 05:48:09;;;;;;;49.93;19.30;;;;;;;6.80;100.00;101550.34;5059551;28;20489;-70
2022/11/14 05:50:36;;;;;;;51.30;19.90;;;;;;;6.78;100.00;101557.88;5058270;28;20489;-69
2022/11/14 05:53:03;;;;;;;55.53;20.03;;;;;;;6.80;100.00;101553.03;5056663;28;20485;-69
2022/11/14 05:55:29;;;;;;;52.50;17.17;;;;;;;6.70;100.00;101552.91;5058509;28;20458;-69
2022/11/14 05:57:58;;;;;;;37.03;17.70;;;;;;;6.66;100.00;101545.59;5059093;28;20468;-69
2022/11/14 06:00:24;;;;;;;48.53;18.00;;;;;;;6.57;100.00;101551.41;5058115;28;21035;-69
2022/11/14 06:02:52;;;;;;;42.23;17.00;;;;;;;6.57;100.00;101542.53;5058299;28;20541;-68
2022/11/14 06:05:20;;;;;;;41.27;17.77;;;;;;;6.60;100.00;101550.13;5057329;28;20556;-68
2022/11/14 06:07:47;;;;;;;47.57;18.17;;;;;;;6.59;100.00;101545.78;5057866;28;21000;-69
2022/11/14 06:10:13;;;;;;;50.47;17.77;;;;;;;6.52;100.00;101547.84;5057700;28;20521;-68
2022/11/14 06:12:40;;;;;;;44.37;18.00;;;;;;;6.50;100.00;101549.97;5058903;28;20889;-69
2022/11/14 06:15:07;;;;;;;42.40;15.83;;;;;;;6.55;100.00;101550.88;5058292;28;20462;-69
2022/11/14 06:17:34;;;;;;;56.13;17.53;;;;;;;6.66;100.00;101559.06;5055283;28;20932;-69
2022/11/14 06:20:01;;;;;;;46.93;16.80;;;;;;;6.74;100.00;101548.66;5057572;28;20965;-69
2022/11/14 06:22:28;;;;;;;53.20;18.30;;;;;;;6.79;100.00;101548.72;5057966;28;20464;-69
2022/11/14 06:24:55;;;;;;;46.33;17.10;;;;;;;6.75;100.00;101544.09;5058903;28;20448;-69
2022/11/14 06:27:22;;;;;;;47.40;17.17;;;;;;;6.79;100.00;101539.81;5057755;28;20486;-69
2022/11/14 06:29:48;;;;;;;42.53;17.17;;;;;;;6.82;100.00;101550.91;5057213;28;20636;-69
2022/11/14 06:32:15;;;;;;;45.87;16.47;;;;;;;6.80;100.00;101546.84;5056071;28;20548;-69
2022/11/14 06:34:41;;;;;;;58.37;20.30;;;;;;;6.73;100.00;101549.72;5058746;28;20961;-69
2022/11/14 06:37:08;;;;;;;47.37;18.73;;;;;;;6.75;100.00;101546.78;5055651;28;20513;-70
2022/11/14 06:39:36;;;;;;;44.40;17.17;;;;;;;6.76;100.00;101541.13;5054650;28;20469;-68
2022/11/14 06:42:03;;;;;;;45.70;17.87;;;;;;;6.80;100.00;101536.06;5053756;28;20460;-68
2022/11/14 06:44:29;;;;;;;53.70;16.17;;;;;;;6.81;100.00;101535.81;5054566;28;20464;-69
2022/11/14 06:46:56;;;;;;;42.93;17.87;;;;;;;6.77;100.00;101545.47;5054779;28;20640;-69
2022/11/14 06:49:23;;;;;;;48.60;18.83;;;;;;;6.76;100.00;101541.13;5053867;28;20535;-68
2022/11/14 06:51:50;;;;;;;50.40;19.77;;;;;;;6.70;100.00;101534.06;5055763;28;20482;-68
2022/11/14 06:54:17;;;;;;;56.87;19.97;;;;;;;6.65;100.00;101535.91;5054582;28;20960;-68
2022/11/14 06:56:45;;;;;;;56.20;19.90;;;;;;;6.69;100.00;101537.84;5055790;28;20464;-69
2022/11/14 06:59:11;;;;;;;57.20;19.07;;;;;;;6.68;100.00;101535.38;5054636;28;20458;-68
2022/11/14 07:01:38;;;;;;;41.77;17.33;;;;;;;6.70;100.00;101546.72;5054605;28;20454;-69
2022/11/14 07:04:05;;;;;;;49.63;18.73;;;;;;;6.70;100.00;101544.84;5054137;28;20537;-68
2022/11/14 07:06:31;;;;;;;56.33;19.40;;;;;;;6.77;100.00;101545.47;5054336;28;20832;-69
2022/11/14 07:08:58;;;;;;;54.23;19.17;;;;;;;6.80;100.00;101536.88;5054008;28;20450;-68
2022/11/14 07:11:28;;;;;;;43.30;16.50;;;;;;;6.88;100.00;101541.00;5054229;28;20547;-69
2022/11/14 07:13:59;;;;;;;43.33;16.13;;;;;;;6.92;100.00;101542.13;5054368;28;20450;-69
2022/11/14 07:16:28;;;;;;;59.27;18.80;;;;;;;6.96;100.00;101553.22;5054735;28;20939;-70
2022/11/14 07:18:55;;;;;;;56.10;19.93;;;;;;;7.00;100.00;101543.56;5054374;28;20431;-68
2022/11/14 07:21:22;;;;;;;55.13;18.80;;;;;;;6.96;100.00;101545.13;5054287;28;20466;-69
2022/11/14 07:23:49;;;;;;;44.50;17.93;;;;;;;6.95;100.00;101546.19;5051148;28;20481;-68
2022/11/14 07:26:15;;;;;;;59.50;17.90;;;;;;;7.01;100.00;101550.56;5054971;28;20453;-69
2022/11/14 07:28:43;;;;;;;43.57;18.97;;;;;;;6.99;100.00;101547.31;5053786;28;20985;-69
2022/11/14 07:31:14;;;;;;;53.10;18.83;;;;;;;7.10;100.00;101543.66;5054951;28;20541;-68
2022/11/14 07:33:41;;;;;;;44.53;17.57;;;;;;;7.10;100.00;101532.88;5052761;28;20545;-69
2022/11/14 07:36:08;;;;;;;42.53;17.37;;;;;;;7.13;100.00;101542.31;5054634;28;20442;-69
2022/11/14 07:38:37;;;;;;;45.23;17.37;;;;;;;7.11;100.00;101539.09;5054844;28;20900;-69
2022/11/14 07:41:05;;;;;;;46.47;18.33;;;;;;;7.10;100.00;101535.59;5054709;28;20442;-69
2022/11/14 07:43:32;;;;;;;48.37;16.90;;;;;;;7.11;100.00;101529.13;5054793;28;20870;-68
2022/11/14 07:45:59;;;;;;;74.20;18.23;;;;;;;7.17;100.00;101533.50;5054787;28;20889;-68
2022/11/14 07:48:27;;;;;;;57.63;19.67;;;;;;;7.18;100.00;101532.44;5054457;28;20473;-68
2022/11/14 07:50:58;;;;;;;45.97;17.00;;;;;;;7.22;100.00;101532.75;5053731;28;20478;-68
2022/11/14 07:53:25;;;;;;;50.33;17.80;;;;;;;7.24;100.00;101526.00;5054295;28;20446;-69
2022/11/14 07:55:51;;;;;;;47.33;18.27;;;;;;;7.31;100.00;101533.91;5054532;28;20449;-69
2022/11/14 07:58:18;;;;;;;41.73;17.43;;;;;;;7.35;100.00;101526.94;5054165;28;20470;-69
2022/11/14 08:00:45;;;;;;;49.87;20.40;;;;;;;7.38;100.00;101528.28;5054493;28;20460;-68
2022/11/14 08:03:12;;;;;;;57.73;18.90;;;;;;;7.48;100.00;101518.44;5054420;28;20533;-68
2022/11/14 08:05:40;;;;;;;55.33;19.30;;;;;;;7.50;100.00;101510.06;5054035;28;21018;-68
2022/11/14 08:08:06;;;;;;;47.30;16.67;;;;;;;7.60;100.00;101523.63;5054283;28;20458;-69
2022/11/14 08:10:33;;;;;;;42.90;17.50;;;;;;;7.64;100.00;101515.84;5053880;28;20864;-69
2022/11/14 08:13:00;;;;;;;49.40;19.30;;;;;;;7.69;100.00;101513.97;5053934;28;20985;-69
2022/11/14 08:15:27;;;;;;;45.20;18.17;;;;;;;7.73;100.00;101511.59;5054132;28;20442;-69
2022/11/14 08:17:58;;;;;;;46.33;17.27;;;;;;;7.73;100.00;101512.41;5053570;28;20477;-68
2022/11/14 08:20:25;;;;;;;44.47;15.80;;;;;;;7.76;100.00;101511.09;5054418;28;20787;-69
2022/11/14 08:22:54;;;;;;;53.43;16.10;;;;;;;7.72;100.00;101524.25;5054090;28;20524;-69
2022/11/14 08:25:20;;;;;;;38.10;18.03;;;;;;;7.73;100.00;101523.19;5053674;28;21019;-69
2022/11/14 08:27:47;;;;;;;64.50;19.50;;;;;;;7.74;100.00;101524.00;5053861;28;20501;-69
2022/11/14 08:30:14;;;;;;;42.80;17.00;;;;;;;7.78;100.00;101517.81;5053841;28;20437;-68
2022/11/14 08:32:40;;;;;;;49.77;17.83;;;;;;;7.84;100.00;101514.09;5053836;28;20592;-69
2022/11/14 08:35:07;;;;;;;48.80;17.50;;;;;;;7.91;100.00;101505.78;5053833;28;20438;-69
2022/11/14 08:37:34;;;;;;;42.23;14.97;;;;;;;7.97;100.00;101506.59;5053753;28;20459;-69
2022/11/14 08:40:02;;;;;;;43.43;18.00;;;;;;;8.01;100.00;101505.03;5053754;28;20477;-69
2022/11/14 08:42:28;;;;;;;36.00;15.87;;;;;;;8.05;100.00;101500.72;5053655;28;20438;-69
2022/11/14 08:44:55;;;;;;;48.43;16.97;;;;;;;8.11;100.00;101502.41;5053630;28;20454;-69
2022/11/14 08:47:21;;;;;;;54.50;18.93;;;;;;;8.12;100.00;101495.91;5053172;28;20466;-69
2022/11/14 08:49:48;;;;;;;70.37;19.77;;;;;;;8.18;100.00;101496.75;5053187;28;20448;-69
2022/11/14 08:52:14;;;;;;;47.00;17.10;;;;;;;8.28;100.00;101489.53;5053436;28;20481;-69
2022/11/14 08:54:41;;;;;;;40.00;15.97;;;;;;;8.27;100.00;101498.69;5053131;28;20983;-69
2022/11/14 08:57:10;;;;;;;55.50;16.23;;;;;;;8.28;100.00;101499.53;5053399;28;20536;-71
2022/11/14 08:59:37;;;;;;;36.57;16.97;;;;;;;8.29;100.00;101498.44;5053409;28;20446;-70
2022/11/14 09:02:03;;;;;;;54.83;18.07;;;;;;;8.34;100.00;101499.25;5052977;28;20796;-71
2022/11/14 09:04:30;;;;;;;64.93;18.27;;;;;;;8.43;100.00;101498.78;5053325;28;20446;-72
2022/11/14 09:06:57;;;;;;;45.30;17.20;;;;;;;8.43;100.00;101496.91;5053120;28;20466;-71
2022/11/14 09:09:24;;;;;;;47.23;17.87;;;;;;;8.42;99.82;101494.47;5053260;28;20449;-71
2022/11/14 09:11:50;;;;;;;44.27;16.37;;;;;;;8.41;99.43;101495.53;5052818;28;21035;-71
2022/11/14 09:14:18;;;;;;;38.87;17.20;;;;;;;8.45;99.93;101492.03;5053231;28;20878;-71
2022/11/14 09:16:47;;;;;;;61.60;17.07;;;;;;;8.49;99.62;101492.31;5052659;28;20501;-70
2022/11/14 09:19:13;;;;;;;43.93;17.67;;;;;;;8.51;99.14;101482.09;5053188;28;20510;-71
2022/11/14 09:21:40;;;;;;;47.20;18.37;;;;;;;8.61;99.21;101489.41;5052844;28;20530;-70
2022/11/14 09:24:07;;;;;;;57.43;17.93;;;;;;;8.65;98.51;101482.41;5053140;28;20792;-69
2022/11/14 09:26:34;;;;;;;44.30;17.40;;;;;;;8.68;98.07;101484.59;5053039;28;20442;-71
2022/11/14 09:29:01;;;;;;;45.73;15.20;;;;;;;8.71;97.59;101487.53;5053104;28;20440;-70
2022/11/14 09:31:29;;;;;;;48.23;18.67;;;;;;;8.74;98.01;101488.91;5052665;28;20900;-70
2022/11/14 09:33:56;;;;;;;46.23;17.00;;;;;;;8.80;97.64;101491.34;5052679;28;20442;-70
2022/11/14 09:36:22;;;;;;;54.20;17.30;;;;;;;8.83;96.70;101485.41;5052912;28;20468;-70
2022/11/14 09:38:51;;;;;;;45.57;16.80;;;;;;;8.78;95.76;101490.81;5052678;28;20472;-70
2022/11/14 09:41:25;;;;;;;46.23;15.53;;;;;;;8.80;95.89;101485.94;5052960;28;20434;-69
2022/11/14 09:44:23;;;;;;;55.27;15.73;;;;;;;8.86;95.51;101485.97;5052889;28;20441;-70
2022/11/14 09:46:56;;;;;;;36.57;15.90;;;;;;;8.91;95.02;101485.97;5052912;28;20462;-70
2022/11/14 09:49:29;;;;;;;33.27;14.20;;;;;;;8.98;95.38;101486.50;5052929;28;20521;-70
2022/11/14 09:52:03;;;;;;;56.20;17.53;;;;;;;9.03;96.35;101475.72;5052799;28;20837;-70
2022/11/14 09:54:40;;;;;;;40.53;15.37;;;;;;;9.07;96.24;101469.53;5052923;28;20419;-70
2022/11/14 09:57:15;;;;;;;40.77;14.33;;;;;;;9.14;95.73;101476.53;5052826;28;20490;-70
2022/11/14 09:59:41;;;;;;;43.90;14.73;;;;;;;9.13;94.49;101467.63;5052795;28;20425;-70
2022/11/14 10:02:43;;;;;;;31.90;14.73;;;;;;;9.23;93.68;101461.41;5052515;28;20438;-70
2022/11/14 10:05:22;;;;;;;48.70;15.77;;;;;;;9.30;92.89;101462.78;5052729;28;20432;-70
2022/11/14 10:08:05;;;;;;;43.23;15.00;;;;;;;9.38;92.96;101457.88;5052665;28;20466;-70
2022/11/14 10:10:45;;;;;;;40.40;14.40;;;;;;;9.38;92.42;101453.28;5052710;28;20477;-70
2022/11/14 10:13:25;;;;;;;46.43;15.87;;;;;;;9.41;92.88;101450.03;5054263;28;20518;-70
2022/11/14 10:15:58;;;;;;;36.67;13.57;;;;;;;9.47;92.97;101450.84;5056452;28;20454;-70
2022/11/14 10:18:40;;;;;;;36.00;15.00;;;;;;;9.58;92.96;101442.47;5055905;28;20495;-70
2022/11/14 10:21:17;;;;;;;34.57;13.13;;;;;;;9.66;92.37;101433.00;5056334;28;20855;-70
2022/11/14 10:23:50;;;;;;;28.43;11.77;;;;;;;9.79;92.06;101440.53;5056267;28;20426;-68
2022/11/14 10:26:25;;;;;;;41.13;14.57;;;;;;;9.92;91.73;101446.47;5047647;28;20545;-71
2022/11/14 10:29:07;;;;;;;34.47;13.63;;;;;;;10.04;90.88;101441.53;5050555;28;20464;-70
2022/11/14 10:31:46;;;;;;;38.00;13.90;;;;;;;10.08;90.46;101445.31;5054889;28;20474;-71
2022/11/14 10:34:25;;;;;;;38.10;14.07;;;;;;;10.24;89.93;101441.50;5055059;28;20462;-71
2022/11/14 10:37:02;;;;;;;25.90;11.67;;;;;;;10.35;88.99;101429.50;5054088;28;20485;-71
2022/11/14 10:39:33;;;;;;;38.83;13.40;;;;;;;10.42;88.91;101417.56;5056023;28;20513;-71
2022/11/14 10:42:08;;;;;;;31.43;13.20;;;;;;;10.53;88.04;101421.84;5054892;28;20450;-71
2022/11/14 10:44:41;;;;;;;31.83;13.90;;;;;;;10.60;87.58;101415.03;5055910;28;20460;-71
2022/11/14 10:47:14;;;;;;;36.07;13.17;;;;;;;10.71;86.84;101417.66;5054740;28;20477;-71
2022/11/14 10:49:46;;;;;;;30.13;11.83;;;;;;;10.79;86.49;101415.16;5055483;28;21118;-71
2022/11/14 10:52:16;;;;;;;40.53;15.60;;;;;;;10.91;86.09;101416.72;5054758;28;20481;-71
2022/11/14 10:54:48;;;;;;;36.20;13.30;;;;;;;11.15;85.13;101417.59;5053039;28;20462;-71
2022/11/14 10:57:16;;;;;;;36.97;15.13;;;;;;;11.40;83.53;101415.75;5055812;28;20545;-71
2022/11/14 10:59:43;;;;;;;33.03;12.23;;;;;;;11.80;82.11;101425.38;5053624;28;20438;-71
2022/11/14 11:02:10;;;;;;;33.27;13.37;;;;;;;12.24;80.35;101419.72;5055325;28;20449;-72
2022/11/14 11:04:38;;;;;;;33.33;13.27;;;;;;;12.45;77.81;101408.59;5055540;28;20446;-71
2022/11/14 11:13:05;;;;;;;25.80;10.73;;;;;;;13.17;73.11;101409.09;5054122;28;20477;-71
2022/11/14 11:15:39;;;;;;;34.63;12.20;;;;;;;13.14;73.59;101406.97;5053543;28;20978;-72
2022/11/14 11:18:24;;;;;;;25.20;10.83;;;;;;;13.23;72.86;101401.69;5048784;28;20534;-71
2022/11/14 11:21:03;;;;;;;23.60;10.63;;;;;;;13.89;70.27;101387.63;5053341;28;20515;-71